Time;durP1;ratioP1;P1;durP2;ratioP2;P2;SDS_P1;SDS_P2;PMS_P1;PMS_P2;Temp;Humidity;BMP_temperature;BMP_pressure;BME280_temperature;BME280_humidity;BME280_pressure;Samples;Min_cycle;Max_cycle;Signal;HPM_P1;HPM_P2
2022/02/17 00:01:04;;;;;;;27.58;4.60;;;10.00;99.90;;;;;;4958122;28;20039;-80
2022/02/17 00:03:30;;;;;;;22.38;4.05;;;10.00;99.90;;;;;;4953797;28;20051;-80
2022/02/17 00:05:56;;;;;;;21.00;4.10;;;9.90;99.90;;;;;;4941918;29;20031;-80
2022/02/17 00:08:22;;;;;;;16.63;3.45;;;10.00;99.90;;;;;;4971236;28;20063;-80
2022/02/17 00:10:48;;;;;;;18.05;4.10;;;9.90;99.90;;;;;;4939713;29;20078;-80
2022/02/17 00:13:14;;;;;;;16.38;3.75;;;9.90;99.90;;;;;;4959026;29;20507;-79
2022/02/17 00:15:40;;;;;;;16.13;3.45;;;9.90;99.90;;;;;;4953675;28;20100;-80
2022/02/17 00:18:16;;;;;;;15.60;3.72;;;9.90;99.90;;;;;;4955821;29;20019;-80
2022/02/17 00:20:42;;;;;;;20.65;3.80;;;10.00;99.90;;;;;;4969903;28;20099;-79
2022/02/17 00:23:08;;;;;;;14.57;3.17;;;10.20;99.90;;;;;;4916937;29;20058;-80
2022/02/17 00:25:33;;;;;;;13.63;3.20;;;10.20;99.90;;;;;;4954013;29;20089;-80
2022/02/17 00:27:59;;;;;;;18.75;3.92;;;10.10;99.90;;;;;;4946769;28;20074;-80
2022/02/17 00:30:25;;;;;;;15.90;3.10;;;10.10;99.90;;;;;;4939487;29;20024;-80
2022/02/17 00:32:50;;;;;;;20.63;3.63;;;10.20;99.90;;;;;;4935700;29;20038;-80
2022/02/17 00:35:16;;;;;;;21.20;3.95;;;10.10;99.90;;;;;;4921519;29;20035;-80
2022/02/17 00:37:41;;;;;;;23.55;4.22;;;10.00;99.90;;;;;;4938204;29;20532;-80
2022/02/17 00:40:07;;;;;;;20.05;3.95;;;10.00;99.90;;;;;;4937001;29;20032;-79
2022/02/17 00:42:33;;;;;;;20.33;4.50;;;10.00;99.90;;;;;;4949415;29;20115;-79
2022/02/17 00:44:59;;;;;;;18.70;3.40;;;9.90;99.90;;;;;;4936659;29;20046;-86
2022/02/17 00:47:25;;;;;;;19.08;3.88;;;10.00;99.90;;;;;;4945610;29;20097;-80
2022/02/17 00:49:51;;;;;;;20.40;3.78;;;9.80;99.90;;;;;;4918656;29;20023;-79
2022/02/17 00:52:16;;;;;;;20.95;3.65;;;9.80;99.90;;;;;;4935365;29;20062;-79
2022/02/17 00:54:42;;;;;;;17.15;4.07;;;9.70;99.90;;;;;;4920951;29;20122;-79
2022/02/17 00:57:08;;;;;;;21.77;3.92;;;9.80;99.90;;;;;;4939800;29;20023;-79
2022/02/17 00:59:33;;;;;;;21.17;3.90;;;9.80;99.90;;;;;;4947727;29;20040;-79
2022/02/17 01:01:59;;;;;;;15.52;3.60;;;9.70;99.90;;;;;;4921773;29;20099;-79
2022/02/17 01:04:25;;;;;;;17.02;3.65;;;9.80;99.90;;;;;;4937329;29;20043;-79
2022/02/17 01:06:51;;;;;;;19.42;3.63;;;9.70;99.90;;;;;;4923054;29;20066;-79
2022/02/17 01:09:17;;;;;;;27.95;4.53;;;9.70;99.90;;;;;;4936426;29;20066;-79
2022/02/17 01:11:43;;;;;;;23.52;3.85;;;9.80;99.90;;;;;;4947944;29;20031;-80
2022/02/17 01:14:09;;;;;;;23.83;4.47;;;9.90;99.90;;;;;;4939028;29;20295;-79
2022/02/17 01:16:36;;;;;;;25.30;4.30;;;9.80;99.90;;;;;;4947160;29;20051;-79
2022/02/17 01:19:02;;;;;;;27.40;4.47;;;9.80;99.90;;;;;;4922332;29;20300;-79
2022/02/17 01:21:28;;;;;;;28.25;4.57;;;9.60;99.90;;;;;;4920745;29;20024;-80
2022/02/17 01:23:54;;;;;;;20.52;4.40;;;9.60;99.90;;;;;;4918835;29;20032;-80
2022/02/17 01:26:19;;;;;;;18.75;3.50;;;9.50;99.90;;;;;;4920648;29;20508;-80
2022/02/17 01:28:45;;;;;;;27.88;4.20;;;9.40;99.90;;;;;;4937619;29;20059;-80
2022/02/17 01:31:11;;;;;;;22.50;3.78;;;9.40;99.90;;;;;;4921248;29;20415;-80
2022/02/17 01:33:37;;;;;;;23.25;3.95;;;9.30;99.90;;;;;;4932190;29;20397;-80
2022/02/17 01:36:06;;;;;;;17.02;3.47;;;9.40;99.90;;;;;;4938714;29;20091;-80
2022/02/17 01:38:37;;;;;;;18.13;3.78;;;9.40;99.90;;;;;;4936136;29;20079;-80
2022/02/17 01:41:07;;;;;;;15.38;3.45;;;9.40;99.90;;;;;;4918459;29;20036;-80
2022/02/17 01:43:34;;;;;;;16.38;3.47;;;9.30;99.90;;;;;;4934578;29;20062;-80
2022/02/17 01:46:00;;;;;;;17.48;3.65;;;9.30;99.90;;;;;;4920776;29;20028;-80
2022/02/17 01:48:26;;;;;;;20.85;3.20;;;9.20;99.90;;;;;;4950219;29;20036;-80
2022/02/17 01:50:52;;;;;;;19.77;3.50;;;9.30;99.90;;;;;;4934364;29;20031;-80
2022/02/17 01:53:19;;;;;;;22.05;3.72;;;9.30;99.90;;;;;;4933919;29;20032;-80
2022/02/17 01:55:47;;;;;;;22.27;3.70;;;9.20;99.90;;;;;;4933206;29;20637;-80
2022/02/17 01:58:14;;;;;;;18.92;3.72;;;9.10;99.90;;;;;;4930944;29;20027;-80
2022/02/17 02:00:41;;;;;;;14.57;3.25;;;9.10;99.90;;;;;;4952415;29;20036;-80
2022/02/17 02:03:08;;;;;;;19.77;4.28;;;9.10;99.90;;;;;;4954543;29;20106;-80
2022/02/17 02:05:34;;;;;;;20.73;3.65;;;9.00;99.90;;;;;;4932145;29;20032;-80
2022/02/17 02:08:00;;;;;;;19.20;3.42;;;9.00;99.90;;;;;;4932985;29;20043;-80
2022/02/17 02:10:27;;;;;;;18.80;3.88;;;9.00;99.90;;;;;;4918656;29;20037;-80
2022/02/17 02:12:52;;;;;;;23.75;3.53;;;8.90;99.90;;;;;;4938450;29;20062;-80
2022/02/17 02:15:18;;;;;;;20.58;4.80;;;9.00;99.90;;;;;;4936138;29;20032;-80
2022/02/17 02:17:44;;;;;;;19.88;3.10;;;8.90;99.90;;;;;;4939562;29;20052;-80
2022/02/17 02:20:19;;;;;;;22.23;4.10;;;8.90;99.90;;;;;;4932708;29;20035;-80
2022/02/17 02:22:46;;;;;;;18.58;4.13;;;8.90;99.90;;;;;;4941093;29;20043;-80
2022/02/17 02:25:13;;;;;;;25.17;4.35;;;8.90;99.90;;;;;;4935286;29;20475;-80
2022/02/17 02:27:38;;;;;;;26.35;4.47;;;8.80;99.90;;;;;;4936690;29;20060;-80
2022/02/17 02:30:06;;;;;;;24.85;4.50;;;8.80;99.90;;;;;;4951914;29;20059;-80
2022/02/17 02:32:32;;;;;;;18.92;4.95;;;8.80;99.90;;;;;;4924998;29;20035;-81
2022/02/17 02:34:58;;;;;;;19.88;3.58;;;8.80;99.90;;;;;;4951786;29;20024;-80
2022/02/17 02:37:23;;;;;;;21.35;3.67;;;8.70;99.90;;;;;;4921804;29;20044;-80
2022/02/17 02:39:50;;;;;;;24.38;3.65;;;8.70;99.90;;;;;;4936564;29;20431;-80
2022/02/17 02:42:16;;;;;;;24.85;4.22;;;8.80;99.90;;;;;;4938806;29;20032;-80
2022/02/17 02:44:43;;;;;;;24.95;4.82;;;8.60;99.90;;;;;;4922488;29;20052;-80
2022/02/17 02:47:09;;;;;;;21.50;4.20;;;8.60;99.90;;;;;;4938888;29;20038;-80
2022/02/17 02:49:37;;;;;;;24.20;4.40;;;8.60;99.90;;;;;;4951949;28;20032;-79
2022/02/17 02:52:04;;;;;;;27.70;4.20;;;8.60;99.90;;;;;;4953851;29;20024;-79
2022/02/17 02:54:30;;;;;;;25.63;4.22;;;8.60;99.90;;;;;;4951267;28;20032;-79
2022/02/17 02:56:56;;;;;;;23.42;3.90;;;8.50;99.90;;;;;;4939843;29;20116;-80
2022/02/17 02:59:21;;;;;;;20.35;3.90;;;8.50;99.90;;;;;;4923669;29;20031;-80
2022/02/17 03:01:47;;;;;;;24.58;4.85;;;8.60;99.90;;;;;;4938858;29;20038;-80
2022/02/17 03:04:13;;;;;;;23.88;4.95;;;8.60;99.90;;;;;;4901504;29;20036;-80
2022/02/17 03:06:39;;;;;;;24.98;5.03;;;8.50;99.90;;;;;;4955431;29;20024;-80
2022/02/17 03:09:05;;;;;;;29.35;4.78;;;8.50;99.90;;;;;;4922962;29;20083;-80
2022/02/17 03:11:32;;;;;;;24.25;5.05;;;8.50;99.90;;;;;;4937530;29;20473;-80
2022/02/17 03:13:58;;;;;;;28.55;5.40;;;8.50;99.90;;;;;;4924378;29;20032;-80
2022/02/17 03:16:25;;;;;;;26.88;5.07;;;8.40;99.90;;;;;;4934372;29;20031;-79
2022/02/17 03:18:51;;;;;;;22.55;4.97;;;8.50;99.90;;;;;;4938617;29;20440;-80
2022/02/17 03:21:17;;;;;;;24.55;4.97;;;8.50;99.90;;;;;;4939522;29;20052;-80
2022/02/17 03:23:42;;;;;;;20.65;5.13;;;8.50;99.90;;;;;;4937831;29;20479;-80
2022/02/17 03:26:08;;;;;;;19.42;4.00;;;8.50;99.90;;;;;;4952906;29;20027;-80
2022/02/17 03:28:34;;;;;;;21.77;4.78;;;8.60;99.90;;;;;;4929910;29;20051;-80
2022/02/17 03:30:59;;;;;;;22.38;4.40;;;8.50;99.90;;;;;;4924660;29;20020;-80
2022/02/17 03:33:25;;;;;;;27.40;4.68;;;8.50;99.90;;;;;;4921425;29;20043;-80
2022/02/17 03:35:51;;;;;;;23.27;4.90;;;8.60;99.90;;;;;;4936392;29;20048;-80
2022/02/17 03:38:17;;;;;;;28.05;4.75;;;8.50;99.90;;;;;;4932820;29;20452;-81
2022/02/17 03:40:42;;;;;;;20.20;4.30;;;8.60;99.90;;;;;;4933572;29;20102;-80
2022/02/17 03:43:08;;;;;;;18.67;4.88;;;8.60;99.90;;;;;;4904599;29;20044;-81
2022/02/17 03:45:34;;;;;;;21.33;4.20;;;8.70;99.90;;;;;;4933990;29;20035;-80
2022/02/17 03:47:59;;;;;;;26.90;4.88;;;8.70;99.90;;;;;;4922382;29;20032;-81
2022/02/17 03:50:25;;;;;;;23.25;4.53;;;8.60;99.90;;;;;;4920894;29;20056;-80
2022/02/17 03:52:51;;;;;;;28.27;5.88;;;8.60;99.90;;;;;;4927535;29;20949;-80
2022/02/17 03:55:17;;;;;;;23.80;4.70;;;8.50;99.90;;;;;;4920315;29;20024;-80
2022/02/17 03:57:46;;;;;;;20.95;4.68;;;8.60;99.90;;;;;;4903662;29;20031;-80
2022/02/17 04:00:12;;;;;;;20.38;3.92;;;8.60;99.90;;;;;;4938830;29;20051;-80
2022/02/17 04:02:38;;;;;;;22.10;4.70;;;8.50;99.90;;;;;;4925132;29;20028;-80
2022/02/17 04:05:04;;;;;;;22.75;4.07;;;8.40;99.90;;;;;;4924599;29;20043;-80
2022/02/17 04:07:30;;;;;;;27.00;4.72;;;8.40;99.90;;;;;;4917594;29;20096;-81
2022/02/17 04:09:56;;;;;;;23.65;4.30;;;8.40;99.90;;;;;;4935796;29;20028;-80
2022/02/17 04:12:22;;;;;;;26.65;4.13;;;8.30;99.90;;;;;;4920414;29;20386;-80
2022/02/17 04:14:47;;;;;;;21.45;3.78;;;8.30;99.90;;;;;;4942399;29;20048;-81
2022/02/17 04:17:14;;;;;;;21.08;3.88;;;8.30;99.90;;;;;;4919961;29;20051;-81
2022/02/17 04:19:40;;;;;;;15.77;3.30;;;8.20;99.90;;;;;;4942222;29;20455;-81
2022/02/17 04:22:07;;;;;;;25.23;4.50;;;8.20;99.90;;;;;;4935314;29;20028;-81
2022/02/17 04:24:33;;;;;;;27.77;5.25;;;8.10;99.90;;;;;;4936463;29;20063;-80
2022/02/17 04:26:58;;;;;;;23.95;3.88;;;8.20;99.90;;;;;;4924981;29;20035;-79
2022/02/17 04:29:25;;;;;;;23.65;4.68;;;8.10;99.90;;;;;;4935077;29;20059;-78
2022/02/17 04:31:51;;;;;;;19.52;4.32;;;8.10;99.90;;;;;;4935915;29;20040;-79
2022/02/17 04:34:16;;;;;;;21.30;4.97;;;8.20;99.90;;;;;;4947957;29;20055;-79
2022/02/17 04:36:42;;;;;;;15.60;3.90;;;8.10;99.90;;;;;;4918930;29;20040;-78
2022/02/17 04:39:08;;;;;;;28.60;4.25;;;8.00;99.90;;;;;;4923010;29;20038;-79
2022/02/17 04:44:18;;;;;;;15.15;3.78;;;8.10;99.90;;;;;;4921379;29;20050;-78
2022/02/17 04:46:44;;;;;;;20.45;4.00;;;8.00;99.90;;;;;;4915901;29;20040;-79
2022/02/17 04:49:10;;;;;;;23.88;4.45;;;7.90;99.90;;;;;;4938562;29;20023;-79
2022/02/17 04:51:35;;;;;;;20.83;3.97;;;8.00;99.90;;;;;;4939736;29;20052;-79
2022/02/17 04:54:01;;;;;;;26.02;4.40;;;7.90;99.90;;;;;;4922605;29;20043;-79
2022/02/17 04:56:27;;;;;;;25.58;4.47;;;8.00;99.90;;;;;;4941565;29;20024;-79
2022/02/17 04:58:52;;;;;;;21.95;4.30;;;7.90;99.90;;;;;;4939703;29;20032;-78
2022/02/17 05:01:18;;;;;;;26.00;4.35;;;8.00;99.90;;;;;;4923067;29;20068;-85
2022/02/17 05:03:44;;;;;;;16.27;4.07;;;8.00;99.90;;;;;;4922320;29;20028;-82
2022/02/17 05:06:09;;;;;;;19.98;3.42;;;7.80;99.90;;;;;;4935507;29;20027;-80
2022/02/17 05:08:35;;;;;;;20.73;4.15;;;7.80;99.90;;;;;;4939977;29;20559;-80
2022/02/17 05:11:01;;;;;;;18.00;3.40;;;7.80;99.90;;;;;;4936510;29;20496;-82
2022/02/17 05:13:26;;;;;;;18.48;3.95;;;7.80;99.90;;;;;;4931657;29;20050;-82
2022/02/17 05:15:52;;;;;;;16.75;4.10;;;7.80;99.90;;;;;;4932827;29;20028;-81
2022/02/17 05:18:18;;;;;;;20.67;4.03;;;7.80;99.90;;;;;;4939350;29;20039;-77
2022/02/17 05:20:44;;;;;;;21.08;3.42;;;7.80;99.90;;;;;;4937291;29;20062;-77
2022/02/17 05:23:10;;;;;;;18.55;3.72;;;7.90;99.90;;;;;;4938960;29;20040;-77
2022/02/17 05:25:37;;;;;;;22.92;4.32;;;7.80;99.90;;;;;;4955274;28;20124;-77
2022/02/17 05:28:03;;;;;;;23.55;4.80;;;7.70;99.90;;;;;;4942216;29;20091;-77
2022/02/17 05:30:40;;;;;;;20.40;3.80;;;7.70;99.90;;;;;;4955906;28;20027;-77
2022/02/17 05:33:15;;;;;;;18.67;4.07;;;7.80;99.90;;;;;;4954993;28;20046;-76
2022/02/17 05:35:42;;;;;;;15.55;3.40;;;7.70;99.90;;;;;;4939065;29;20125;-77
2022/02/17 05:38:08;;;;;;;15.48;3.08;;;7.70;99.90;;;;;;4968598;28;20023;-77
2022/02/17 05:40:35;;;;;;;19.70;3.50;;;7.70;99.90;;;;;;4970682;28;20108;-78
2022/02/17 05:43:02;;;;;;;23.45;3.80;;;7.70;99.90;;;;;;4966742;28;20031;-78
2022/02/17 05:45:28;;;;;;;20.33;3.60;;;7.60;99.90;;;;;;4965857;28;20114;-80
2022/02/17 05:47:54;;;;;;;19.88;4.22;;;7.70;99.90;;;;;;4966531;28;20086;-79
2022/02/17 05:50:20;;;;;;;22.35;3.83;;;7.60;99.90;;;;;;4963956;28;20027;-78
2022/02/17 05:52:48;;;;;;;21.58;3.78;;;7.60;99.90;;;;;;4943004;29;20079;-78
2022/02/17 05:55:15;;;;;;;21.95;3.58;;;7.60;99.90;;;;;;4955923;28;20058;-77
2022/02/17 05:57:41;;;;;;;21.20;4.30;;;7.60;99.90;;;;;;4964865;28;20016;-77
2022/02/17 06:00:08;;;;;;;20.42;3.50;;;7.60;99.90;;;;;;4945562;28;20398;-78
2022/02/17 06:02:34;;;;;;;21.48;3.90;;;7.60;99.90;;;;;;4946678;29;20044;-77
2022/02/17 06:04:59;;;;;;;22.67;3.88;;;7.50;99.90;;;;;;4955244;28;20055;-78
2022/02/17 06:07:25;;;;;;;16.55;4.07;;;7.60;99.90;;;;;;4955778;28;20035;-78
2022/02/17 06:32:05;;;;;;;26.70;4.47;;;7.60;99.90;;;;;;4972018;23;20053;-91
2022/02/17 06:34:30;;;;;;;24.83;4.10;;;7.50;99.90;;;;;;4950949;28;20061;-91
2022/02/17 06:36:56;;;;;;;19.45;4.38;;;7.50;99.90;;;;;;4926774;28;20050;-90
2022/02/17 06:39:22;;;;;;;20.27;3.47;;;7.60;99.90;;;;;;4954966;28;20050;-90
2022/02/17 06:41:48;;;;;;;18.45;3.40;;;7.60;99.90;;;;;;4958363;28;20043;-90
2022/02/17 06:44:13;;;;;;;18.25;3.47;;;7.60;99.90;;;;;;4953869;28;20145;-88
2022/02/17 06:46:39;;;;;;;23.20;5.22;;;7.60;99.90;;;;;;4965305;28;20122;-90
2022/02/17 06:49:04;;;;;;;25.00;4.32;;;7.60;99.90;;;;;;4973893;28;20517;-91
2022/02/17 06:51:30;;;;;;;21.52;4.00;;;7.60;99.90;;;;;;4946468;28;20030;-90
2022/02/17 06:53:56;;;;;;;24.02;4.50;;;7.60;99.90;;;;;;4956404;28;20035;-89
2022/02/17 06:56:21;;;;;;;23.15;3.58;;;7.70;99.90;;;;;;4955061;28;20090;-90
2022/02/17 06:58:47;;;;;;;29.45;4.95;;;7.70;99.90;;;;;;4957926;28;20027;-90
2022/02/17 07:01:13;;;;;;;27.08;4.57;;;7.70;99.90;;;;;;4956629;28;20441;-89
2022/02/17 07:03:39;;;;;;;24.55;4.80;;;7.70;99.90;;;;;;4959283;28;20117;-90
2022/02/17 07:06:06;;;;;;;21.27;4.00;;;7.80;99.90;;;;;;4947406;28;20023;-90
2022/02/17 07:08:32;;;;;;;24.55;4.55;;;7.70;99.90;;;;;;4974636;28;20015;-89
2022/02/17 07:10:59;;;;;;;22.25;4.72;;;7.70;99.90;;;;;;4943265;28;20023;-91
2022/02/17 07:13:29;;;;;;;24.13;4.40;;;7.70;99.90;;;;;;4968161;28;20027;-90
2022/02/17 07:15:56;;;;;;;24.23;4.47;;;7.70;99.90;;;;;;4954684;28;20090;-88
2022/02/17 07:18:26;;;;;;;26.63;4.38;;;7.70;99.90;;;;;;4949750;28;20027;-89
2022/02/17 07:20:53;;;;;;;24.58;4.85;;;7.70;99.90;;;;;;4961796;28;20046;-90
2022/02/17 07:23:24;;;;;;;22.85;4.53;;;7.70;99.90;;;;;;4973494;28;20179;-88
2022/02/17 07:25:50;;;;;;;19.55;4.20;;;7.70;99.90;;;;;;4956442;28;20086;-88
2022/02/17 07:28:17;;;;;;;23.63;4.60;;;7.70;99.90;;;;;;4955050;28;20117;-91
2022/02/17 07:30:44;;;;;;;20.33;3.95;;;7.70;99.90;;;;;;4974426;28;20034;-90
2022/02/17 07:33:10;;;;;;;25.13;3.95;;;7.70;99.90;;;;;;4965371;28;20046;-90
2022/02/17 07:35:35;;;;;;;17.30;3.15;;;7.70;99.90;;;;;;4967123;28;20035;-90
2022/02/17 07:38:01;;;;;;;23.63;3.40;;;7.70;99.90;;;;;;4954640;28;20118;-90
2022/02/17 07:40:28;;;;;;;23.85;4.05;;;7.70;99.90;;;;;;4951265;28;20353;-88
2022/02/17 07:42:54;;;;;;;20.67;3.33;;;7.70;99.90;;;;;;4973872;28;20529;-89
2022/02/17 07:45:19;;;;;;;23.40;4.70;;;7.70;99.90;;;;;;4939625;28;20122;-87
2022/02/17 07:47:46;;;;;;;23.90;4.47;;;7.70;99.90;;;;;;4947611;28;20118;-86
2022/02/17 07:50:13;;;;;;;21.40;3.65;;;7.70;99.90;;;;;;4971069;28;20089;-85
2022/02/17 07:52:39;;;;;;;15.93;4.05;;;7.70;99.90;;;;;;4951434;28;20066;-85
2022/02/17 07:55:05;;;;;;;23.92;4.25;;;7.60;99.90;;;;;;4972307;28;20046;-86
2022/02/17 07:57:31;;;;;;;25.27;4.78;;;7.60;99.90;;;;;;4974668;28;20383;-88
2022/02/17 07:59:56;;;;;;;20.73;3.58;;;7.60;99.90;;;;;;4956558;28;20114;-88
2022/02/17 08:02:22;;;;;;;22.48;4.28;;;7.60;99.90;;;;;;4972506;28;20085;-88
2022/02/17 08:04:48;;;;;;;22.83;3.88;;;7.70;99.90;;;;;;4974654;28;20427;-87
2022/02/17 08:07:13;;;;;;;25.52;4.95;;;7.60;99.90;;;;;;4958164;28;20037;-87
2022/02/17 08:09:39;;;;;;;18.77;3.67;;;7.60;99.90;;;;;;4954509;28;20039;-84
2022/02/17 08:12:05;;;;;;;19.77;3.88;;;7.60;99.90;;;;;;4949288;28;20069;-85
2022/02/17 08:14:31;;;;;;;20.10;4.15;;;7.70;99.90;;;;;;4966596;28;20054;-85
2022/02/17 08:16:56;;;;;;;23.08;4.10;;;7.70;99.90;;;;;;4952399;28;20423;-82
2022/02/17 08:19:22;;;;;;;22.73;4.30;;;7.70;99.90;;;;;;4938877;28;20030;-83
2022/02/17 08:21:48;;;;;;;20.00;3.60;;;7.70;99.90;;;;;;4953551;28;20027;-84
2022/02/17 08:24:15;;;;;;;23.35;3.95;;;7.80;99.90;;;;;;4939264;28;20126;-84
2022/02/17 08:26:41;;;;;;;16.30;3.33;;;7.80;99.90;;;;;;4957036;28;20473;-86
2022/02/17 08:29:11;;;;;;;20.08;3.95;;;7.80;99.90;;;;;;4969000;28;20033;-86
2022/02/17 08:31:37;;;;;;;18.17;3.70;;;7.80;99.90;;;;;;4939335;28;20057;-86
2022/02/17 08:34:04;;;;;;;21.98;4.72;;;7.80;99.90;;;;;;4960754;28;20027;-87
2022/02/17 08:36:36;;;;;;;19.77;3.10;;;7.80;99.90;;;;;;4943028;29;20131;-87
2022/02/17 08:39:03;;;;;;;18.63;3.42;;;7.80;99.90;;;;;;4962521;28;20017;-87
2022/02/17 08:41:28;;;;;;;22.35;3.67;;;7.80;99.90;;;;;;4956043;28;20029;-87
2022/02/17 08:43:54;;;;;;;15.68;3.40;;;7.80;99.90;;;;;;4953602;28;20038;-86
2022/02/17 08:46:20;;;;;;;21.95;3.95;;;7.90;99.90;;;;;;4951373;28;20413;-86
2022/02/17 08:48:47;;;;;;;20.77;3.80;;;7.80;99.90;;;;;;4974198;28;20436;-85
2022/02/17 08:51:17;;;;;;;20.30;3.70;;;7.90;99.90;;;;;;4971929;28;20030;-86
2022/02/17 08:53:48;;;;;;;20.42;3.75;;;7.90;99.90;;;;;;4955902;28;20031;-87
2022/02/17 08:56:14;;;;;;;18.05;3.67;;;7.90;99.90;;;;;;4966137;28;20054;-86
2022/02/17 08:58:40;;;;;;;17.88;4.07;;;7.90;99.90;;;;;;4969686;28;20129;-87
2022/02/17 09:01:05;;;;;;;22.02;3.75;;;8.00;99.90;;;;;;4949714;28;20503;-84
2022/02/17 09:03:31;;;;;;;18.92;3.78;;;8.00;99.90;;;;;;4972710;28;20352;-84
2022/02/17 09:05:57;;;;;;;25.90;3.75;;;8.00;99.90;;;;;;4959053;28;20479;-87
2022/02/17 09:08:23;;;;;;;18.48;4.30;;;8.00;99.90;;;;;;4966974;28;20034;-86
2022/02/17 09:10:48;;;;;;;15.20;3.05;;;7.90;99.90;;;;;;4942795;29;20031;-83
2022/02/17 09:13:15;;;;;;;19.05;3.83;;;8.00;99.90;;;;;;4947109;28;20046;-82
2022/02/17 09:15:41;;;;;;;18.08;3.70;;;8.00;99.90;;;;;;4956066;28;20023;-87
2022/02/17 09:18:06;;;;;;;22.50;4.70;;;8.00;99.90;;;;;;4956735;28;20424;-85
2022/02/17 09:20:32;;;;;;;19.10;3.85;;;8.10;99.90;;;;;;4960053;28;20371;-85
2022/02/17 09:22:59;;;;;;;20.63;4.00;;;8.10;99.90;;;;;;4955859;28;20113;-84
2022/02/17 09:25:25;;;;;;;19.98;3.72;;;8.10;99.90;;;;;;4969405;28;20101;-85
2022/02/17 09:27:50;;;;;;;19.45;3.15;;;8.10;99.90;;;;;;4972284;28;20022;-86
2022/02/17 09:30:16;;;;;;;14.77;3.30;;;8.20;99.90;;;;;;4961948;28;20102;-85
2022/02/17 09:32:42;;;;;;;21.23;3.72;;;8.20;99.90;;;;;;4969826;28;20090;-85
2022/02/17 09:35:11;;;;;;;26.20;4.20;;;8.30;99.90;;;;;;4954716;28;20101;-83
2022/02/17 09:37:37;;;;;;;22.38;3.88;;;8.30;99.90;;;;;;4951798;28;20031;-83
2022/02/17 09:40:04;;;;;;;23.13;4.10;;;8.40;99.90;;;;;;4922053;28;20023;-84
2022/02/17 09:42:36;;;;;;;17.90;4.05;;;8.40;99.90;;;;;;4954299;28;20364;-85
2022/02/17 09:45:04;;;;;;;19.25;3.58;;;8.40;99.90;;;;;;4970061;28;20035;-84
2022/02/17 09:47:30;;;;;;;21.98;4.25;;;8.50;99.90;;;;;;4969386;28;20043;-87
2022/02/17 09:49:56;;;;;;;18.15;4.10;;;8.50;99.90;;;;;;4970069;28;20065;-87
2022/02/17 09:52:22;;;;;;;27.42;4.80;;;8.50;99.90;;;;;;4922892;28;20414;-86
2022/02/17 09:54:48;;;;;;;18.25;3.33;;;8.50;99.90;;;;;;4955529;28;20101;-87
2022/02/17 09:57:21;;;;;;;24.38;3.85;;;8.50;99.90;;;;;;4923063;28;20027;-86
2022/02/17 09:59:46;;;;;;;18.05;4.13;;;8.50;99.90;;;;;;4972126;28;20497;-83
2022/02/17 10:02:24;;;;;;;21.85;4.25;;;8.50;99.90;;;;;;4939672;28;20142;-84
2022/02/17 10:04:55;;;;;;;25.75;5.05;;;8.50;99.90;;;;;;4967429;28;20126;-84
2022/02/17 10:07:35;;;;;;;20.57;4.37;;;8.60;99.90;;;;;;4951838;28;20046;-85
2022/02/17 10:10:05;;;;;;;18.90;3.67;;;8.80;99.90;;;;;;4951053;28;20034;-85
2022/02/17 10:13:04;;;;;;;24.70;4.07;;;8.80;99.90;;;;;;4960691;28;20035;-87
2022/02/17 10:15:39;;;;;;;20.17;4.03;;;8.90;99.90;;;;;;4969768;28;20019;-86
2022/02/17 10:18:16;;;;;;;21.25;3.65;;;9.00;99.90;;;;;;4968843;28;20435;-87
2022/02/17 10:21:03;;;;;;;22.85;4.20;;;9.10;99.90;;;;;;4964066;28;20023;-86
2022/02/17 10:23:41;;;;;;;17.20;3.10;;;9.40;99.90;;;;;;4971160;28;20035;-87
2022/02/17 10:26:24;;;;;;;20.65;3.90;;;9.40;99.90;;;;;;4965306;28;20375;-86
2022/02/17 10:28:54;;;;;;;23.30;4.18;;;9.50;99.90;;;;;;4954007;28;20420;-84
2022/02/17 10:31:29;;;;;;;16.67;3.25;;;9.50;99.90;;;;;;4967373;28;20071;-85
2022/02/17 10:33:57;;;;;;;20.23;3.42;;;9.50;99.90;;;;;;4955708;28;20460;-87
2022/02/17 10:36:44;;;;;;;19.20;3.30;;;9.70;99.90;;;;;;4964495;28;20077;-85
2022/02/17 10:39:26;;;;;;;15.93;3.50;;;9.60;99.90;;;;;;4963403;28;20022;-84
2022/02/17 10:41:57;;;;;;;18.33;3.65;;;9.70;99.90;;;;;;4959604;28;20023;-85
2022/02/17 10:44:28;;;;;;;19.97;4.03;;;9.80;99.90;;;;;;4965471;28;20023;-85
2022/02/17 10:46:54;;;;;;;22.40;4.07;;;10.40;99.90;;;;;;4955452;28;20444;-85
2022/02/17 10:49:21;;;;;;;19.05;3.92;;;10.90;99.90;;;;;;4957097;28;20033;-83
2022/02/17 10:51:49;;;;;;;14.82;3.42;;;11.10;99.90;;;;;;4939812;28;20031;-84
2022/02/17 10:54:20;;;;;;;20.80;3.33;;;11.30;99.90;;;;;;4965002;28;20046;-84
2022/02/17 10:56:47;;;;;;;17.10;3.35;;;11.10;99.90;;;;;;4973864;28;20015;-83
2022/02/17 11:01:58;;;;;;;21.52;3.17;;;11.50;99.90;;;;;;4954166;28;20037;-83
2022/02/17 11:04:26;;;;;;;16.73;3.05;;;11.60;99.90;;;;;;4969731;28;20030;-87
2022/02/17 11:06:52;;;;;;;15.95;3.25;;;11.60;99.90;;;;;;4939236;28;20027;-87
2022/02/17 11:09:19;;;;;;;16.77;3.42;;;11.60;99.90;;;;;;4970396;28;20049;-86
2022/02/17 11:11:52;;;;;;;14.45;2.83;;;11.60;99.90;;;;;;4943096;28;20106;-81
2022/02/17 11:14:38;;;;;;;15.27;3.15;;;11.70;99.90;;;;;;4938631;28;20027;-89
2022/02/17 11:17:05;;;;;;;17.60;3.10;;;11.60;99.90;;;;;;4971609;28;20135;-85
2022/02/17 11:19:32;;;;;;;17.95;3.00;;;12.60;99.90;;;;;;4957267;28;20038;-87
2022/02/17 11:21:58;;;;;;;13.88;3.08;;;13.00;93.10;;;;;;4956248;28;20037;-89
2022/02/17 11:24:23;;;;;;;14.63;3.08;;;13.10;90.70;;;;;;4954979;28;20030;-89
2022/02/17 11:27:04;;;;;;;17.48;3.15;;;14.30;89.20;;;;;;4937258;28;20102;-84
2022/02/17 11:29:33;;;;;;;12.45;2.80;;;14.80;78.10;;;;;;4968616;28;20031;-86
2022/02/17 11:32:02;;;;;;;12.40;2.47;;;15.30;74.60;;;;;;4966635;28;20054;-87
2022/02/17 11:34:46;;;;;;;13.18;2.88;;;16.20;70.90;;;;;;4953159;28;20054;-87
2022/02/17 11:37:21;;;;;;;14.40;2.50;;;16.40;60.10;;;;;;4955606;28;20379;-88
2022/02/17 11:40:08;;;;;;;11.82;2.50;;;16.70;58.20;;;;;;4955154;28;20478;-87
2022/02/17 11:42:44;;;;;;;14.07;2.38;;;16.00;54.60;;;;;;4954233;28;20018;-90
2022/02/17 11:45:17;;;;;;;14.50;3.25;;;15.90;58.70;;;;;;4954591;28;20022;-93
2022/02/17 11:48:30;;;;;;;11.55;2.40;;;16.30;57.60;;;;;;4957029;28;20065;-92
2022/02/17 11:51:21;;;;;;;16.02;2.60;;;16.20;56.90;;;;;;4972662;28;20038;-82
2022/02/17 11:53:49;;;;;;;12.85;2.90;;;15.20;60.30;;;;;;4965574;28;20113;-92
2022/02/17 11:56:19;;;;;;;10.93;2.50;;;15.50;61.10;;;;;;4972441;28;20105;-88
2022/02/17 11:58:56;;;;;;;15.73;3.13;;;15.00;58.90;;;;;;4968018;28;20027;-90
2022/02/17 12:01:27;;;;;;;17.17;2.80;;;15.10;64.50;;;;;;4966452;28;20284;-86
2022/02/17 12:04:17;;;;;;;14.13;2.72;;;14.80;65.70;;;;;;4969209;28;20038;-90
2022/02/17 12:06:45;;;;;;;12.43;2.60;;;14.80;63.80;;;;;;4950724;28;20019;-92
2022/02/17 12:09:29;;;;;;;12.13;2.55;;;14.60;66.10;;;;;;4953765;28;20020;-89
2022/02/17 12:12:13;;;;;;;14.05;2.40;;;14.70;63.50;;;;;;4970924;28;20475;-91
2022/02/17 12:14:59;;;;;;;13.25;2.50;;;14.90;67.30;;;;;;4974301;28;20439;-94
2022/02/17 12:17:33;;;;;;;13.88;2.80;;;14.00;62.90;;;;;;4958924;28;20023;-93
2022/02/17 12:20:02;;;;;;;15.95;2.97;;;14.20;68.00;;;;;;4965796;28;20050;-94
2022/02/17 12:22:28;;;;;;;13.68;2.80;;;13.20;67.10;;;;;;4973211;28;20027;-91
2022/02/17 12:25:29;;;;;;;13.48;3.20;;;13.20;79.80;;;;;;4974417;28;20487;-88
2022/02/17 12:27:56;;;;;;;14.10;2.80;;;12.30;86.20;;;;;;4972131;28;20034;-83
2022/02/17 12:30:23;;;;;;;13.13;2.75;;;12.60;91.60;;;;;;4970112;28;20022;-87
2022/02/17 12:33:02;;;;;;;11.98;2.55;;;11.70;90.70;;;;;;4941466;29;20047;-88
2022/02/17 12:35:27;;;;;;;9.43;2.30;;;12.00;99.90;;;;;;4931443;29;20022;-87
2022/02/17 12:38:04;;;;;;;14.98;3.03;;;11.40;98.70;;;;;;4943443;29;20028;-86
2022/02/17 12:40:31;;;;;;;11.18;2.50;;;11.10;99.90;;;;;;4932713;29;20139;-87
2022/02/17 12:42:56;;;;;;;15.32;2.40;;;10.70;99.90;;;;;;4934068;29;20051;-88
2022/02/17 12:45:33;;;;;;;15.45;2.58;;;10.60;99.90;;;;;;4931892;29;20051;-86
2022/02/17 12:48:00;;;;;;;14.02;3.05;;;10.50;99.90;;;;;;4932899;29;20032;-86
2022/02/17 12:50:26;;;;;;;11.13;2.42;;;10.30;99.90;;;;;;4912531;29;20094;-83
2022/02/17 12:52:55;;;;;;;15.73;2.80;;;10.20;99.90;;;;;;4926955;29;20032;-88
2022/02/17 12:55:20;;;;;;;15.82;3.70;;;10.30;99.90;;;;;;4916002;29;20024;-88
2022/02/17 12:57:53;;;;;;;12.18;2.30;;;10.20;99.90;;;;;;4902285;29;20357;-91
2022/02/17 13:00:19;;;;;;;11.38;2.28;;;10.10;99.90;;;;;;4918212;29;20046;-90
2022/02/17 13:02:46;;;;;;;15.10;2.30;;;10.00;99.90;;;;;;4934458;29;20118;-91
2022/02/17 13:05:14;;;;;;;13.77;3.15;;;9.70;99.90;;;;;;4934688;29;20409;-89
2022/02/17 13:07:40;;;;;;;12.93;2.58;;;9.70;99.90;;;;;;4919379;29;20035;-89
2022/02/17 13:10:06;;;;;;;15.40;2.55;;;9.60;99.90;;;;;;4934846;29;20027;-89
2022/02/17 13:12:32;;;;;;;9.63;2.25;;;9.50;99.90;;;;;;4933404;29;20023;-89
2022/02/17 13:15:00;;;;;;;15.02;2.63;;;9.40;99.90;;;;;;4918729;29;20039;-90
2022/02/17 13:17:32;;;;;;;13.07;2.35;;;9.50;99.90;;;;;;4936245;29;20020;-90